Thacker, West Virginia
Current Conditions -  °F | °C
As of 10:35 AM on Thursday 30 Oct 2014 (Local Time) from KPBX Reporting Station
Overcast Overcast  
Wind Chill: 43°   Ceiling: 3800
Heat Index: 43°   Visibility: 10mi
Dew Point: 35°   Wind: 3mph
Humidity: 72%   Direction: 20°NNE
Pressure: 30.14"   Gusts: NA
Location:  37.59°N, 82.13°W
Report Text: KPBX 301435Z AUTO 02003KT 10SM OVC038 06/01 A3014 RMK AO2 T00610014
Loading
Personal Weather Stations






























Interactive Weather Map
Tropical Storm Tracking
New forecast layout! Learn more

10-Day Weather Forecast

Advertisements
Track Severe Weather on mobile